European Causeway — C6RG7 — position and weather

sailwx.info

Track history (hours):
 
Tides and Currents Weather Stations Pressure Air Temp Water Temp Dewpoint Dewpoint Depression Visibility Wind Speed Wind Dir Waves Ship Positions

European Causeway

Operator: P & O Irish Sea

Last reported at 2016-Jun-28 09:28 UTC. Time now 2016-Jun-28 09:46 UTC.
Position N 54°58' W 005°01'.

Length 165 m; draft 5.5 m.

Type: Ship (hazmat cat A). MMSI: 311027000.

Date/timePositionNaut miles runAvg speedWind from/ knotsBaromVisibWave heightAir tempDewpointWater temp
2016-Jun-28 09:28N 54°58' W 005°01'0 0.0
2016-Jun-28 08:29N 54°58' W 005°01'1112.1
2016-Jun-28 07:33N 54°59' W 005°20'1816.8
2016-Jun-28 06:31N 54°51' W 005°48'6 3.2
2016-Jun-28 04:33N 54°54' W 005°39'1918.0
2016-Jun-28 03:31N 55°02' W 005°09'6 5.4
2016-Jun-28 02:25N 54°58' W 005°01'0 0.0
2016-Jun-28 01:31N 54°58' W 005°01'5 4.5
2016-Jun-28 00:27N 55°02' W 005°06'1718.5
2016-Jun-27 23:33N 54°55' W 005°33'10 9.2
2016-Jun-27 22:31N 54°51' W 005°48'0 0.0
2016-Jun-27 21:31N 54°51' W 005°48'1 1.3
2016-Jun-27 20:33N 54°52' W 005°47'1919.4
2016-Jun-27 19:33N 55°01' W 005°17'10 9.3
2016-Jun-27 18:31N 54°58' W 005°01'0 0.0
2016-Jun-27 17:33N 54°58' W 005°01'1010.1
2016-Jun-27 16:34N 54°58' W 005°18'1818.3
2016-Jun-27 15:33N 54°51' W 005°48'0 0.1
2016-Jun-27 14:28N 54°51' W 005°48'1314.6
2016-Jun-27 13:33N 54°57' W 005°28'1514.6
2016-Jun-27 12:33N 54°58' W 005°02'1 1.0
2016-Jun-27 11:33N 54°58' W 005°01'1010.0
2016-Jun-27 10:33N 54°59' W 005°18'1818.5
2016-Jun-27 09:33N 54°51' W 005°48'0 0.4
2016-Jun-27 08:33N 54°51' W 005°48'1211.6
2016-Jun-27 07:34N 54°57' W 005°31'1615.8
2016-Jun-27 06:32N 54°59' W 005°03'2 2.2
2016-Jun-27 05:32N 54°58' W 005°01'5 4.7
2016-Jun-27 04:24N 55°02' W 005°07'1720.1
2016-Jun-27 03:33N 54°54' W 005°34'9 8.7
2016-Jun-27 02:33N 54°51' W 005°48'0 0.0
2016-Jun-27 01:33N 54°51' W 005°48'0 0.0
2016-Jun-27 00:33N 54°51' W 005°48'3 2.6
2016-Jun-26 23:33N 54°53' W 005°45'1918.6
2016-Jun-26 22:33N 55°00' W 005°15'8 7.9
2016-Jun-26 21:29N 54°58' W 005°01'6 5.3
2016-Jun-26 20:20N 55°02' W 005°09'1620.2
2016-Jun-26 19:34N 54°55' W 005°34'9 8.6
2016-Jun-26 18:31N 54°51' W 005°48'0 0.0
2016-Jun-26 17:31N 54°51' W 005°48'1111.4
2016-Jun-26 16:33N 54°56' W 005°31'1716.3
2016-Jun-26 15:32N 54°59' W 005°03'2 1.7
2016-Jun-26 14:33N 54°58' W 005°01'5 4.9
2016-Jun-26 13:27N 55°02' W 005°08'1617.4
2016-Jun-26 12:33N 54°55' W 005°32'10 9.9
2016-Jun-26 11:33N 54°51' W 005°48'0 0.0
2016-Jun-26 10:33N 54°51' W 005°48'0 0.0
2016-Jun-26 09:33N 54°51' W 005°48'0 0.0
2016-Jun-26 08:33N 54°51' W 005°48'1212.3
2016-Jun-26 07:33N 54°57' W 005°29'1514.7
2016-Jun-26 06:31N 54°59' W 005°03'2 1.8
2016-Jun-26 05:32N 54°58' W 005°01'0 0.0
2016-Jun-26 04:32N 54°58' W 005°01'0 0.0
2016-Jun-26 03:29N 54°58' W 005°01'0 0.0
2016-Jun-26 02:32N 54°58' W 005°01'0 0.0
2016-Jun-26 01:32N 54°58' W 005°01'0 0.0
2016-Jun-26 00:27N 54°58' W 005°01'0 0.0
2016-Jun-25 23:30N 54°58' W 005°01'0 0.0
2016-Jun-25 22:33N 54°58' W 005°01'0 0.0
2016-Jun-25 21:09N 54°58' W 005°01'5 8.5
2016-Jun-25 20:33N 55°01' W 005°07'2020.3
2016-Jun-25 19:33N 54°53' W 005°39'6 5.6
2016-Jun-25 18:33N 54°51' W 005°48'0 0.0
2016-Jun-25 17:33N 54°51' W 005°48'10 9.7
2016-Jun-25 16:33N 54°56' W 005°33'1817.7
2016-Jun-25 15:33N 54°59' W 005°03'2 1.9
2016-Jun-25 14:33N 54°58' W 005°01'9 9.5
2016-Jun-25 13:34N 54°58' W 005°17'1817.6
2016-Jun-25 12:33N 54°52' W 005°46'2 1.6
2016-Jun-25 11:33N 54°51' W 005°48'1312.5
2016-Jun-25 10:34N 54°57' W 005°29'1514.6
2016-Jun-25 09:33N 54°59' W 005°03'2 2.3
2016-Jun-25 08:33N 54°58' W 005°01'10 9.7
2016-Jun-25 07:33N 54°59' W 005°18'1918.0
2016-Jun-25 06:32N 54°52' W 005°47'1 1.0
2016-Jun-25 05:33N 54°51' W 005°48'6 6.2
2016-Jun-25 04:33N 54°54' W 005°39'2019.9
2016-Jun-25 03:33N 55°02' W 005°07'5 4.7
2016-Jun-25 02:29N 54°58' W 005°01'0 0.0
2016-Jun-25 01:28N 54°58' W 005°01'5 5.0
2016-Jun-25 00:29N 55°02' W 005°06'1617.7
2016-Jun-24 23:33N 54°55' W 005°33'10 9.4
2016-Jun-24 22:32N 54°51' W 005°48'0 0.0
2016-Jun-24 21:32N 54°51' W 005°48'4 3.7
2016-Jun-24 20:34N 54°53' W 005°43'1817.9
2016-Jun-24 19:33N 55°00' W 005°14'8 7.7
2016-Jun-24 18:30N 54°58' W 005°01'0 0.0
2016-Jun-24 17:33N 54°58' W 005°01'1010.5
2016-Jun-24 16:33N 54°59' W 005°19'1817.7
2016-Jun-24 15:33N 54°52' W 005°47'1 1.0
2016-Jun-24 14:32N 54°51' W 005°48'1414.6
2016-Jun-24 13:34N 54°58' W 005°26'1414.4
2016-Jun-24 12:34N 54°58' W 005°01'0 0.0
2016-Jun-24 11:33N 54°58' W 005°01'1010.1
2016-Jun-24 10:34N 54°59' W 005°18'1817.6
2016-Jun-24 09:34N 54°52' W 005°46'1 1.4
2016-Jun-24 08:33N 54°51' W 005°48'1313.0
2016-Jun-24 07:33N 54°57' W 005°28'13 4.3
2016-Jun-24 04:30N 55°02' W 005°07'1718.4
2016-Jun-24 03:33N 54°54' W 005°35'8 8.2
2016-Jun-24 02:32N 54°51' W 005°48'0 0.0
2016-Jun-24 01:32N 54°51' W 005°48'6 5.6
2016-Jun-24 00:34N 54°54' W 005°40'1817.9
2016-Jun-23 23:34N 55°01' W 005°12'7 6.2
2016-Jun-23 22:25N 54°58' W 005°01'0 0.0
2016-Jun-23 21:33N 54°58' W 005°01'6 5.2
2016-Jun-23 20:28N 55°02' W 005°08'1617.1
2016-Jun-23 19:33N 54°55' W 005°33'10 8.4
2016-Jun-23 18:25N 54°51' W 005°48'0 0.0
2016-Jun-23 17:31N 54°51' W 005°48'1314.0
2016-Jun-23 16:34N 54°58' W 005°28'1515.1
2016-Jun-23 15:33N 54°58' W 005°01'0 0.3
2016-Jun-23 14:33N 54°58' W 005°01'1111.1
2016-Jun-23 13:34N 54°58' W 005°20'1717.5
2016-Jun-23 12:33N 54°51' W 005°48'0 0.1
2016-Jun-23 11:33N 54°51' W 005°48'1313.4
2016-Jun-23 10:33N 54°57' W 005°27'1514.5
2016-Jun-23 09:33N 54°59' W 005°02'1 1.1
2016-Jun-23 08:33N 54°58' W 005°01'1010.2
2016-Jun-23 07:34N 54°59' W 005°19'19 9.3
2016-Jun-23 05:33N 54°51' W 005°48'6 5.9
2016-Jun-23 04:33N 54°54' W 005°39'1918.6
2016-Jun-23 03:33N 55°01' W 005°10'6 6.3
2016-Jun-23 02:34N 54°58' W 005°01'0 0.0
2016-Jun-23 01:34N 54°58' W 005°01'5 5.0
2016-Jun-23 00:30N 55°02' W 005°07'1718.3
2016-Jun-22 23:33N 54°54' W 005°35'8 8.1
2016-Jun-22 22:32N 54°51' W 005°48'0 0.0
2016-Jun-22 21:29N 54°51' W 005°48'4 4.8
2016-Jun-22 20:33N 54°53' W 005°42'1716.6
2016-Jun-22 19:33N 55°00' W 005°15'9 8.0
2016-Jun-22 18:28N 54°58' W 005°01'0 0.0
2016-Jun-22 17:31N 54°58' W 005°01'1111.5
2016-Jun-22 16:33N 54°59' W 005°20'1817.0
2016-Jun-22 15:30N 54°51' W 005°48'0 0.0
2016-Jun-22 14:33N 54°51' W 005°48'1313.2
2016-Jun-22 13:33N 54°57' W 005°28'1515.0
2016-Jun-22 12:33N 54°58' W 005°02'1 0.8
2016-Jun-22 11:32N 54°58' W 005°01'1111.0
2016-Jun-22 10:33N 54°58' W 005°20'1817.8
2016-Jun-22 09:34N 54°51' W 005°48'0 0.1
2016-Jun-22 08:33N 54°51' W 005°48'1312.6
2016-Jun-22 07:33N 54°57' W 005°29'1514.7
2016-Jun-22 06:32N 54°59' W 005°03'1 1.4
2016-Jun-22 05:28N 54°58' W 005°01'5 5.2
2016-Jun-22 04:32N 55°02' W 005°06'1919.3
2016-Jun-22 03:33N 54°54' W 005°36'7 7.4
2016-Jun-22 02:33N 54°51' W 005°48'0 0.0
2016-Jun-22 01:33N 54°51' W 005°48'5 4.8
2016-Jun-22 00:33N 54°54' W 005°41'1717.2
2016-Jun-21 23:34N 55°01' W 005°14'8 7.6
2016-Jun-21 22:30N 54°58' W 005°01'0 0.0
2016-Jun-21 21:30N 54°58' W 005°01'5 5.2
2016-Jun-21 20:30N 55°02' W 005°07'1717.9
2016-Jun-21 19:33N 54°55' W 005°34'9 8.7
2016-Jun-21 18:33N 54°51' W 005°48'0 0.0
2016-Jun-21 17:33N 54°51' W 005°48'1212.4
2016-Jun-21 16:33N 54°57' W 005°29'1515.1
2016-Jun-21 15:33N 54°59' W 005°03'2 2.1
2016-Jun-21 14:33N 54°58' W 005°01'1211.5
2016-Jun-21 13:33N 54°58' W 005°21'1717.0
2016-Jun-21 12:34N 54°51' W 005°48'0 0.1
2016-Jun-21 11:33N 54°51' W 005°48'1312.8
2016-Jun-21 10:33N 54°57' W 005°28'1515.0
2016-Jun-21 09:33N 54°59' W 005°02'1 1.3
2016-Jun-21 08:33N 54°58' W 005°01'1010.3
2016-Jun-21 07:34N 54°59' W 005°19'14 4.6
2016-Jun-21 04:33N 54°53' W 005°41'1817.8
2016-Jun-21 03:32N 55°01' W 005°13'8 7.0
2016-Jun-21 02:28N 54°58' W 005°01'0 0.0
2016-Jun-21 01:31N 54°58' W 005°01'5 5.1
2016-Jun-21 00:28N 55°02' W 005°07'1719.0
2016-Jun-20 23:34N 54°54' W 005°35'8 8.0
2016-Jun-20 22:31N 54°51' W 005°48'0 0.0
2016-Jun-20 21:31N 54°51' W 005°48'4 4.4
2016-Jun-20 20:33N 54°53' W 005°42'1817.5
2016-Jun-20 19:33N 55°01' W 005°14'8 7.9
2016-Jun-20 18:31N 54°58' W 005°01'0 0.0
2016-Jun-20 17:33N 54°58' W 005°01'1211.6
2016-Jun-20 16:33N 54°58' W 005°21'1716.9
2016-Jun-20 15:33N 54°51' W 005°48'0 0.0
2016-Jun-20 14:34N 54°51' W 005°48'1211.9
2016-Jun-20 13:33N 54°57' W 005°30'1514.4
2016-Jun-20 12:30N 54°60' W 005°04'2 2.6
2016-Jun-20 11:33N 54°58' W 005°01'1111.1
2016-Jun-20 10:33N 54°58' W 005°20'1717.4
2016-Jun-20 09:34N 54°51' W 005°48'0 0.1
2016-Jun-20 08:34N 54°51' W 005°48'1313.1
2016-Jun-20 07:33N 54°57' W 005°27'1414.1
2016-Jun-20 06:32N 54°59' W 005°02'1 1.4
2016-Jun-20 05:32N 54°58' W 005°01'5 5.0
2016-Jun-20 04:30N 55°02' W 005°07'1718.7
2016-Jun-20 03:33N 54°55' W 005°35'8 7.9
2016-Jun-20 02:30N 54°51' W 005°48'0 0.0
2016-Jun-20 01:33N 54°51' W 005°48'0 0.0
2016-Jun-20 00:33N 54°51' W 005°48'5 4.6
2016-Jun-19 23:33N 54°53' W 005°41'2019.8
2016-Jun-19 22:33N 55°02' W 005°10'1 0.4
2016-Jun-19 20:23N 55°01' W 005°12'1518.6
2016-Jun-19 19:33N 54°54' W 005°35'8 7.9
2016-Jun-19 18:33N 54°51' W 005°48'0 0.0
2016-Jun-19 17:34N 54°51' W 005°48'1313.1
2016-Jun-19 16:34N 54°57' W 005°28'1514.9
2016-Jun-19 15:34N 54°59' W 005°02'1 1.2
2016-Jun-19 14:33N 54°58' W 005°01'5 4.9
2016-Jun-19 13:33N 55°02' W 005°06'2020.1
2016-Jun-19 12:33N 54°53' W 005°38'6 6.1
2016-Jun-19 11:34N 54°51' W 005°48'0 0.0
2016-Jun-19 10:33N 54°51' W 005°48'0 0.0
2016-Jun-19 09:34N 54°51' W 005°48'0 0.0
2016-Jun-19 08:33N 54°51' W 005°48'1212.3
2016-Jun-19 07:33N 54°56' W 005°29'1515.1
2016-Jun-19 06:32N 54°59' W 005°03'1 1.3
2016-Jun-19 05:25N 54°58' W 005°01'0 0.0
2016-Jun-19 04:31N 54°58' W 005°01'0 0.0
2016-Jun-19 03:28N 54°58' W 005°01'0 0.0
2016-Jun-19 02:31N 54°58' W 005°01'0 0.0
2016-Jun-19 01:28N 54°58' W 005°01'0 0.0
2016-Jun-19 00:31N 54°58' W 005°01'0 0.0
2016-Jun-18 22:22N 54°58' W 005°01'0 0.0
2016-Jun-18 21:32N 54°58' W 005°01'7 7.0
2016-Jun-18 20:33N 55°00' W 005°12'1919.1
2016-Jun-18 19:33N 54°53' W 005°42'4 3.6
2016-Jun-18 18:33N 54°51' W 005°48'0 0.0
2016-Jun-18 17:34N 54°51' W 005°48'1211.5
2016-Jun-18 16:33N 54°57' W 005°30'1615.8
2016-Jun-18 15:33N 54°59' W 005°03'2 1.9
2016-Jun-18 14:33N 54°58' W 005°01'1212.4
2016-Jun-18 13:33N 54°58' W 005°22'1616.1
2016-Jun-18 12:34N 54°51' W 005°48'0 0.0
2016-Jun-18 11:33N 54°51' W 005°48'1313.4
2016-Jun-18 10:33N 54°57' W 005°27'1414.4
2016-Jun-18 09:33N 54°59' W 005°02'  
Track history (hours):
 
Tides and Currents Weather Stations Pressure Air Temp Water Temp Dewpoint Dewpoint Depression Visibility Wind Speed Wind Dir Waves Ship Positions

European Causeway

Operator: P & O Irish Sea

Last reported at 2016-Jun-28 09:28 UTC. Time now 2016-Jun-28 09:46 UTC.
Position N 54°58' W 005°01'.

Length 165 m; draft 5.5 m.

Type: Ship (hazmat cat A). MMSI: 311027000.

Date/timePositionNaut miles runAvg speedWind from/ knotsBaromVisibWave heightAir tempDewpointWater temp
2016-Jun-28 09:28N 54°58' W 005°01'0 0.0
2016-Jun-28 08:29N 54°58' W 005°01'1112.1
2016-Jun-28 07:33N 54°59' W 005°20'1816.8
2016-Jun-28 06:31N 54°51' W 005°48'6 3.2
2016-Jun-28 04:33N 54°54' W 005°39'1918.0
2016-Jun-28 03:31N 55°02' W 005°09'6 5.4
2016-Jun-28 02:25N 54°58' W 005°01'0 0.0
2016-Jun-28 01:31N 54°58' W 005°01'5 4.5
2016-Jun-28 00:27N 55°02' W 005°06'1718.5
2016-Jun-27 23:33N 54°55' W 005°33'10 9.2
2016-Jun-27 22:31N 54°51' W 005°48'0 0.0
2016-Jun-27 21:31N 54°51' W 005°48'1 1.3
2016-Jun-27 20:33N 54°52' W 005°47'1919.4
2016-Jun-27 19:33N 55°01' W 005°17'10 9.3
2016-Jun-27 18:31N 54°58' W 005°01'0 0.0
2016-Jun-27 17:33N 54°58' W 005°01'1010.1
2016-Jun-27 16:34N 54°58' W 005°18'1818.3
2016-Jun-27 15:33N 54°51' W 005°48'0 0.1
2016-Jun-27 14:28N 54°51' W 005°48'1314.6
2016-Jun-27 13:33N 54°57' W 005°28'1514.6
2016-Jun-27 12:33N 54°58' W 005°02'1 1.0
2016-Jun-27 11:33N 54°58' W 005°01'1010.0
2016-Jun-27 10:33N 54°59' W 005°18'1818.5
2016-Jun-27 09:33N 54°51' W 005°48'0 0.4
2016-Jun-27 08:33N 54°51' W 005°48'1211.6
2016-Jun-27 07:34N 54°57' W 005°31'1615.8
2016-Jun-27 06:32N 54°59' W 005°03'2 2.2
2016-Jun-27 05:32N 54°58' W 005°01'5 4.7
2016-Jun-27 04:24N 55°02' W 005°07'1720.1
2016-Jun-27 03:33N 54°54' W 005°34'9 8.7
2016-Jun-27 02:33N 54°51' W 005°48'0 0.0
2016-Jun-27 01:33N 54°51' W 005°48'0 0.0
2016-Jun-27 00:33N 54°51' W 005°48'3 2.6
2016-Jun-26 23:33N 54°53' W 005°45'1918.6
2016-Jun-26 22:33N 55°00' W 005°15'8 7.9
2016-Jun-26 21:29N 54°58' W 005°01'6 5.3
2016-Jun-26 20:20N 55°02' W 005°09'1620.2
2016-Jun-26 19:34N 54°55' W 005°34'9 8.6
2016-Jun-26 18:31N 54°51' W 005°48'0 0.0
2016-Jun-26 17:31N 54°51' W 005°48'1111.4
2016-Jun-26 16:33N 54°56' W 005°31'1716.3
2016-Jun-26 15:32N 54°59' W 005°03'2 1.7
2016-Jun-26 14:33N 54°58' W 005°01'5 4.9
2016-Jun-26 13:27N 55°02' W 005°08'1617.4
2016-Jun-26 12:33N 54°55' W 005°32'10 9.9
2016-Jun-26 11:33N 54°51' W 005°48'0 0.0
2016-Jun-26 10:33N 54°51' W 005°48'0 0.0
2016-Jun-26 09:33N 54°51' W 005°48'0 0.0
2016-Jun-26 08:33N 54°51' W 005°48'1212.3
2016-Jun-26 07:33N 54°57' W 005°29'1514.7
2016-Jun-26 06:31N 54°59' W 005°03'2 1.8
2016-Jun-26 05:32N 54°58' W 005°01'0 0.0
2016-Jun-26 04:32N 54°58' W 005°01'0 0.0
2016-Jun-26 03:29N 54°58' W 005°01'0 0.0
2016-Jun-26 02:32N 54°58' W 005°01'0 0.0
2016-Jun-26 01:32N 54°58' W 005°01'0 0.0
2016-Jun-26 00:27N 54°58' W 005°01'0 0.0
2016-Jun-25 23:30N 54°58' W 005°01'0 0.0
2016-Jun-25 22:33N 54°58' W 005°01'0 0.0
2016-Jun-25 21:09N 54°58' W 005°01'5 8.5
2016-Jun-25 20:33N 55°01' W 005°07'2020.3
2016-Jun-25 19:33N 54°53' W 005°39'6 5.6
2016-Jun-25 18:33N 54°51' W 005°48'0 0.0
2016-Jun-25 17:33N 54°51' W 005°48'10 9.7
2016-Jun-25 16:33N 54°56' W 005°33'1817.7
2016-Jun-25 15:33N 54°59' W 005°03'2 1.9
2016-Jun-25 14:33N 54°58' W 005°01'9 9.5
2016-Jun-25 13:34N 54°58' W 005°17'1817.6
2016-Jun-25 12:33N 54°52' W 005°46'2 1.6
2016-Jun-25 11:33N 54°51' W 005°48'1312.5
2016-Jun-25 10:34N 54°57' W 005°29'1514.6
2016-Jun-25 09:33N 54°59' W 005°03'2 2.3
2016-Jun-25 08:33N 54°58' W 005°01'10 9.7
2016-Jun-25 07:33N 54°59' W 005°18'1918.0
2016-Jun-25 06:32N 54°52' W 005°47'1 1.0
2016-Jun-25 05:33N 54°51' W 005°48'6 6.2
2016-Jun-25 04:33N 54°54' W 005°39'2019.9
2016-Jun-25 03:33N 55°02' W 005°07'5 4.7
2016-Jun-25 02:29N 54°58' W 005°01'0 0.0
2016-Jun-25 01:28N 54°58' W 005°01'5 5.0
2016-Jun-25 00:29N 55°02' W 005°06'1617.7
2016-Jun-24 23:33N 54°55' W 005°33'10 9.4
2016-Jun-24 22:32N 54°51' W 005°48'0 0.0
2016-Jun-24 21:32N 54°51' W 005°48'4 3.7
2016-Jun-24 20:34N 54°53' W 005°43'1817.9
2016-Jun-24 19:33N 55°00' W 005°14'8 7.7
2016-Jun-24 18:30N 54°58' W 005°01'0 0.0
2016-Jun-24 17:33N 54°58' W 005°01'1010.5
2016-Jun-24 16:33N 54°59' W 005°19'1817.7
2016-Jun-24 15:33N 54°52' W 005°47'1 1.0
2016-Jun-24 14:32N 54°51' W 005°48'1414.6
2016-Jun-24 13:34N 54°58' W 005°26'1414.4
2016-Jun-24 12:34N 54°58' W 005°01'0 0.0
2016-Jun-24 11:33N 54°58' W 005°01'1010.1
2016-Jun-24 10:34N 54°59' W 005°18'1817.6
2016-Jun-24 09:34N 54°52' W 005°46'1 1.4
2016-Jun-24 08:33N 54°51' W 005°48'1313.0
2016-Jun-24 07:33N 54°57' W 005°28'13 4.3
2016-Jun-24 04:30N 55°02' W 005°07'1718.4
2016-Jun-24 03:33N 54°54' W 005°35'8 8.2
2016-Jun-24 02:32N 54°51' W 005°48'0 0.0
2016-Jun-24 01:32N 54°51' W 005°48'6 5.6
2016-Jun-24 00:34N 54°54' W 005°40'1817.9
2016-Jun-23 23:34N 55°01' W 005°12'7 6.2
2016-Jun-23 22:25N 54°58' W 005°01'0 0.0
2016-Jun-23 21:33N 54°58' W 005°01'6 5.2
2016-Jun-23 20:28N 55°02' W 005°08'1617.1
2016-Jun-23 19:33N 54°55' W 005°33'10 8.4
2016-Jun-23 18:25N 54°51' W 005°48'0 0.0
2016-Jun-23 17:31N 54°51' W 005°48'1314.0
2016-Jun-23 16:34N 54°58' W 005°28'1515.1
2016-Jun-23 15:33N 54°58' W 005°01'0 0.3
2016-Jun-23 14:33N 54°58' W 005°01'1111.1
2016-Jun-23 13:34N 54°58' W 005°20'1717.5
2016-Jun-23 12:33N 54°51' W 005°48'0 0.1
2016-Jun-23 11:33N 54°51' W 005°48'1313.4
2016-Jun-23 10:33N 54°57' W 005°27'1514.5
2016-Jun-23 09:33N 54°59' W 005°02'1 1.1
2016-Jun-23 08:33N 54°58' W 005°01'1010.2
2016-Jun-23 07:34N 54°59' W 005°19'19 9.3
2016-Jun-23 05:33N 54°51' W 005°48'6 5.9
2016-Jun-23 04:33N 54°54' W 005°39'1918.6
2016-Jun-23 03:33N 55°01' W 005°10'6 6.3
2016-Jun-23 02:34N 54°58' W 005°01'0 0.0
2016-Jun-23 01:34N 54°58' W 005°01'5 5.0
2016-Jun-23 00:30N 55°02' W 005°07'1718.3
2016-Jun-22 23:33N 54°54' W 005°35'8 8.1
2016-Jun-22 22:32N 54°51' W 005°48'0 0.0
2016-Jun-22 21:29N 54°51' W 005°48'4 4.8
2016-Jun-22 20:33N 54°53' W 005°42'1716.6
2016-Jun-22 19:33N 55°00' W 005°15'9 8.0
2016-Jun-22 18:28N 54°58' W 005°01'0 0.0
2016-Jun-22 17:31N 54°58' W 005°01'1111.5
2016-Jun-22 16:33N 54°59' W 005°20'1817.0
2016-Jun-22 15:30N 54°51' W 005°48'0 0.0
2016-Jun-22 14:33N 54°51' W 005°48'1313.2
2016-Jun-22 13:33N 54°57' W 005°28'1515.0
2016-Jun-22 12:33N 54°58' W 005°02'1 0.8
2016-Jun-22 11:32N 54°58' W 005°01'1111.0
2016-Jun-22 10:33N 54°58' W 005°20'1817.8
2016-Jun-22 09:34N 54°51' W 005°48'0 0.1
2016-Jun-22 08:33N 54°51' W 005°48'1312.6
2016-Jun-22 07:33N 54°57' W 005°29'1514.7
2016-Jun-22 06:32N 54°59' W 005°03'1 1.4
2016-Jun-22 05:28N 54°58' W 005°01'5 5.2
2016-Jun-22 04:32N 55°02' W 005°06'1919.3
2016-Jun-22 03:33N 54°54' W 005°36'7 7.4
2016-Jun-22 02:33N 54°51' W 005°48'0 0.0
2016-Jun-22 01:33N 54°51' W 005°48'5 4.8
2016-Jun-22 00:33N 54°54' W 005°41'1717.2
2016-Jun-21 23:34N 55°01' W 005°14'8 7.6
2016-Jun-21 22:30N 54°58' W 005°01'0 0.0
2016-Jun-21 21:30N 54°58' W 005°01'5 5.2
2016-Jun-21 20:30N 55°02' W 005°07'1717.9
2016-Jun-21 19:33N 54°55' W 005°34'9 8.7
2016-Jun-21 18:33N 54°51' W 005°48'0 0.0
2016-Jun-21 17:33N 54°51' W 005°48'1212.4
2016-Jun-21 16:33N 54°57' W 005°29'1515.1
2016-Jun-21 15:33N 54°59' W 005°03'2 2.1
2016-Jun-21 14:33N 54°58' W 005°01'1211.5
2016-Jun-21 13:33N 54°58' W 005°21'1717.0
2016-Jun-21 12:34N 54°51' W 005°48'0 0.1
2016-Jun-21 11:33N 54°51' W 005°48'1312.8
2016-Jun-21 10:33N 54°57' W 005°28'1515.0
2016-Jun-21 09:33N 54°59' W 005°02'1 1.3
2016-Jun-21 08:33N 54°58' W 005°01'1010.3
2016-Jun-21 07:34N 54°59' W 005°19'14 4.6
2016-Jun-21 04:33N 54°53' W 005°41'1817.8
2016-Jun-21 03:32N 55°01' W 005°13'8 7.0
2016-Jun-21 02:28N 54°58' W 005°01'0 0.0
2016-Jun-21 01:31N 54°58' W 005°01'5 5.1
2016-Jun-21 00:28N 55°02' W 005°07'1719.0
2016-Jun-20 23:34N 54°54' W 005°35'8 8.0
2016-Jun-20 22:31N 54°51' W 005°48'0 0.0
2016-Jun-20 21:31N 54°51' W 005°48'4 4.4
2016-Jun-20 20:33N 54°53' W 005°42'1817.5
2016-Jun-20 19:33N 55°01' W 005°14'8 7.9
2016-Jun-20 18:31N 54°58' W 005°01'0 0.0
2016-Jun-20 17:33N 54°58' W 005°01'1211.6
2016-Jun-20 16:33N 54°58' W 005°21'1716.9
2016-Jun-20 15:33N 54°51' W 005°48'0 0.0
2016-Jun-20 14:34N 54°51' W 005°48'1211.9
2016-Jun-20 13:33N 54°57' W 005°30'1514.4
2016-Jun-20 12:30N 54°60' W 005°04'2 2.6
2016-Jun-20 11:33N 54°58' W 005°01'1111.1
2016-Jun-20 10:33N 54°58' W 005°20'1717.4
2016-Jun-20 09:34N 54°51' W 005°48'0 0.1
2016-Jun-20 08:34N 54°51' W 005°48'1313.1
2016-Jun-20 07:33N 54°57' W 005°27'1414.1
2016-Jun-20 06:32N 54°59' W 005°02'1 1.4
2016-Jun-20 05:32N 54°58' W 005°01'5 5.0
2016-Jun-20 04:30N 55°02' W 005°07'1718.7
2016-Jun-20 03:33N 54°55' W 005°35'8 7.9
2016-Jun-20 02:30N 54°51' W 005°48'0 0.0
2016-Jun-20 01:33N 54°51' W 005°48'0 0.0
2016-Jun-20 00:33N 54°51' W 005°48'5 4.6
2016-Jun-19 23:33N 54°53' W 005°41'2019.8
2016-Jun-19 22:33N 55°02' W 005°10'1 0.4
2016-Jun-19 20:23N 55°01' W 005°12'1518.6
2016-Jun-19 19:33N 54°54' W 005°35'8 7.9
2016-Jun-19 18:33N 54°51' W 005°48'0 0.0
2016-Jun-19 17:34N 54°51' W 005°48'1313.1
2016-Jun-19 16:34N 54°57' W 005°28'1514.9
2016-Jun-19 15:34N 54°59' W 005°02'1 1.2
2016-Jun-19 14:33N 54°58' W 005°01'5 4.9
2016-Jun-19 13:33N 55°02' W 005°06'2020.1
2016-Jun-19 12:33N 54°53' W 005°38'6 6.1
2016-Jun-19 11:34N 54°51' W 005°48'0 0.0
2016-Jun-19 10:33N 54°51' W 005°48'0 0.0
2016-Jun-19 09:34N 54°51' W 005°48'0 0.0
2016-Jun-19 08:33N 54°51' W 005°48'1212.3
2016-Jun-19 07:33N 54°56' W 005°29'1515.1
2016-Jun-19 06:32N 54°59' W 005°03'1 1.3
2016-Jun-19 05:25N 54°58' W 005°01'0 0.0
2016-Jun-19 04:31N 54°58' W 005°01'0 0.0
2016-Jun-19 03:28N 54°58' W 005°01'0 0.0
2016-Jun-19 02:31N 54°58' W 005°01'0 0.0
2016-Jun-19 01:28N 54°58' W 005°01'0 0.0
2016-Jun-19 00:31N 54°58' W 005°01'0 0.0
2016-Jun-18 22:22N 54°58' W 005°01'0 0.0
2016-Jun-18 21:32N 54°58' W 005°01'7 7.0
2016-Jun-18 20:33N 55°00' W 005°12'1919.1
2016-Jun-18 19:33N 54°53' W 005°42'4 3.6
2016-Jun-18 18:33N 54°51' W 005°48'0 0.0
2016-Jun-18 17:34N 54°51' W 005°48'1211.5
2016-Jun-18 16:33N 54°57' W 005°30'1615.8
2016-Jun-18 15:33N 54°59' W 005°03'2 1.9
2016-Jun-18 14:33N 54°58' W 005°01'1212.4
2016-Jun-18 13:33N 54°58' W 005°22'1616.1
2016-Jun-18 12:34N 54°51' W 005°48'0 0.0
2016-Jun-18 11:33N 54°51' W 005°48'1313.4
2016-Jun-18 10:33N 54°57' W 005°27'1414.4
2016-Jun-18 09:33N 54°59' W 005°02'  

Dump ship's entire track history